Decoded Metar for KGMU (GREENVILLE in SC, USA) (IATA:GMU) | Meteo·Mobile Aviation Weather
aviador You're here:

KGMU Decoded Metar

GREENVILLE in SC, USA
Report Time2019-01-20 09:53:00
UTC Time2019-01-20 10:34:38
Flight Rules mvfr MVFR
Wind240° at 10 Gusting to 21 kt
W.Decomp.*RWY 28: 8.2 kt HW 5.7 kt LCW
RWY 19: 5.7 kt HW 8.2 kt RCW
W.Rank240° ranks 4
Current wind is above 240° avg. (7.7)
Visibility9999 m
Phenomena:N/A
Clouds:Overcast 011 Hf
Expected CloudBase > 800 ft AGL from Temp-Dew spread
Ceiling1,100 ft
Temp09°C (ISA -4)
Dew Point07°C (87% RH)
AAT4.7°C
QNH1000 hPa
Density Alt1,145 ft
Elevation1,033 ft
Report Wrong Elevation
Raw Report
METAR KGMU 200953Z AUTO 24010G21KT 10SM OVC011 09/07 A2952 RMK AO2
PK WND 23026/0929 SLP995 T00890067=

Extra information for KGMU:More info

Metar Taf Metar & Taf Last 4 Metars F.Rules Stats Wind Profile Meteogram Temp Stats Airport Information Weather charts Add Link Nearby VenuesMetar ALERT Operation Metar Decoded Social comments

AIRNAV info for KGMU